createdAt,value
2023-04-18T00:01:38.805Z,17.33
2023-04-18T00:06:41.032Z,19.08
2023-04-18T00:11:43.238Z,14.70
2023-04-18T00:16:46.460Z,14.00
2023-04-18T00:21:49.552Z,15.85
2023-04-18T00:26:51.632Z,13.40
2023-04-18T00:31:53.907Z,14.95
2023-04-18T00:36:56.703Z,13.88
2023-04-18T00:41:58.780Z,15.32
2023-04-18T00:47:01.080Z,16.08
2023-04-18T00:52:03.221Z,16.83
2023-04-18T00:57:05.709Z,16.80
2023-04-18T01:02:07.995Z,16.17
2023-04-18T01:07:10.246Z,17.98
2023-04-18T01:12:12.329Z,17.45
2023-04-18T01:17:16.301Z,15.30
2023-04-18T01:22:19.987Z,14.55
2023-04-18T01:27:22.138Z,17.15
2023-04-18T01:32:24.456Z,15.82
2023-04-18T01:37:26.533Z,15.98
2023-04-18T01:42:29.908Z,16.13
2023-04-18T01:47:32.023Z,16.58
2023-04-18T01:52:34.269Z,17.17
2023-04-18T01:57:36.930Z,16.13
2023-04-18T02:02:39.490Z,13.02
2023-04-18T02:07:42.763Z,16.08
2023-04-18T02:12:44.883Z,14.57
2023-04-18T02:17:46.993Z,15.18
2023-04-18T02:22:49.113Z,16.13
2023-04-18T02:27:51.258Z,16.00
2023-04-18T02:32:54.472Z,15.40
2023-04-18T02:43:02.551Z,14.50
2023-04-18T02:48:05.116Z,15.77
2023-04-18T02:53:09.026Z,18.90
2023-04-18T02:58:26.390Z,15.00
2023-04-18T03:03:59.779Z,17.13
2023-04-18T03:09:15.196Z,16.50
2023-04-18T03:14:22.546Z,15.10
2023-04-18T03:24:31.730Z,17.25
2023-04-18T03:29:37.231Z,15.73
2023-04-18T03:34:40.005Z,17.52
2023-04-18T03:39:43.890Z,17.48
2023-04-18T03:44:46.515Z,15.68
2023-04-18T03:49:49.482Z,17.13
2023-04-18T03:54:51.733Z,17.23
2023-04-18T03:59:59.346Z,18.85
2023-04-18T04:05:05.229Z,16.98
2023-04-18T04:10:07.771Z,17.85
2023-04-18T04:15:10.680Z,16.55
2023-04-18T04:20:23.027Z,17.00
2023-04-18T04:25:33.259Z,15.05
2023-04-18T04:30:41.608Z,15.40
2023-04-18T04:35:44.096Z,16.87
2023-04-18T04:40:46.496Z,15.57
2023-04-18T04:45:51.616Z,16.23
2023-04-18T04:50:58.978Z,15.55
2023-04-18T04:56:01.762Z,16.13
2023-04-18T05:01:04.540Z,15.65
2023-04-18T05:06:07.315Z,15.52
2023-04-18T05:11:09.399Z,15.85
2023-04-18T05:16:11.645Z,13.80
2023-04-18T05:21:13.767Z,14.93
2023-04-18T05:26:15.938Z,14.18
2023-04-18T05:31:18.141Z,14.82
2023-04-18T05:36:20.711Z,16.38
2023-04-18T05:41:23.092Z,16.60
2023-04-18T05:46:25.311Z,15.75
2023-04-18T05:51:28.505Z,15.35
2023-04-18T05:56:30.725Z,14.27
2023-04-18T06:01:32.755Z,16.35
2023-04-18T06:06:35.737Z,16.58
2023-04-18T06:11:37.796Z,17.45
2023-04-18T06:16:39.997Z,16.33
2023-04-18T06:21:42.844Z,16.92
2023-04-18T06:26:45.012Z,16.88
2023-04-18T06:31:48.448Z,15.95
2023-04-18T06:36:50.749Z,18.63
2023-04-18T06:41:52.814Z,18.98
2023-04-18T06:47:04.453Z,18.83
2023-04-18T06:52:06.776Z,22.67
2023-04-18T06:57:09.354Z,23.77
2023-04-18T07:02:11.577Z,26.73
2023-04-18T07:07:13.688Z,24.20
2023-04-18T07:12:16.390Z,25.40
2023-04-18T07:17:18.547Z,26.52
2023-04-18T07:22:20.640Z,30.85
2023-04-18T07:27:22.737Z,28.25
2023-04-18T07:32:24.819Z,30.23
2023-04-18T07:37:27.142Z,26.73
2023-04-18T07:42:29.232Z,29.70
2023-04-18T07:47:32.575Z,30.02
2023-04-18T07:52:36.352Z,30.23
2023-04-18T07:57:39.545Z,29.45
2023-04-18T08:02:41.883Z,28.80
2023-04-18T08:07:44.124Z,31.70
2023-04-18T08:12:46.352Z,33.83
2023-04-18T08:17:49.227Z,29.63
2023-04-18T08:28:00.552Z,29.50
2023-04-18T08:33:03.050Z,29.42
2023-04-18T08:38:05.558Z,23.65
2023-04-18T08:43:09.461Z,28.58
2023-04-18T08:48:16.330Z,24.38
2023-04-18T08:53:19.073Z,24.00
2023-04-18T08:58:22.789Z,27.75
2023-04-18T09:03:42.494Z,22.17
2023-04-18T09:08:56.466Z,21.27
2023-04-18T09:14:02.453Z,27.35
2023-04-18T09:19:13.406Z,22.58
2023-04-18T09:24:22.566Z,23.23
2023-04-18T09:29:52.239Z,23.60
2023-04-18T09:34:58.144Z,21.58
2023-04-18T09:40:00.620Z,23.90
2023-04-18T09:45:07.832Z,24.20
2023-04-18T09:50:11.147Z,20.85
2023-04-18T09:55:16.206Z,23.55
2023-04-18T10:00:24.243Z,25.63
2023-04-18T10:05:31.396Z,20.30
2023-04-18T10:10:33.620Z,23.48
2023-04-18T10:15:36.283Z,23.88
2023-04-18T10:20:41.262Z,22.38
2023-04-18T10:25:48.459Z,20.10
2023-04-18T10:30:53.327Z,23.15
2023-04-18T10:36:07.598Z,25.77
2023-04-18T10:41:26.272Z,19.65
2023-04-18T10:46:31.608Z,23.52
2023-04-18T10:51:34.731Z,19.52
2023-04-18T10:56:36.991Z,22.90
2023-04-18T11:01:46.356Z,21.20
2023-04-18T11:06:55.005Z,20.52
2023-04-18T11:12:07.518Z,21.55
2023-04-18T11:17:19.420Z,23.70
2023-04-18T11:22:21.546Z,20.67
2023-04-18T11:27:26.213Z,21.27
2023-04-18T11:32:28.393Z,19.65
2023-04-18T11:37:30.988Z,18.88
2023-04-18T11:42:34.382Z,18.73
2023-04-18T11:47:36.534Z,21.73
2023-04-18T11:52:41.162Z,17.38
2023-04-18T11:57:50.734Z,18.27
2023-04-18T12:02:53.792Z,19.27
2023-04-18T12:07:56.751Z,22.30
2023-04-18T12:13:00.027Z,17.77
2023-04-18T12:18:05.155Z,17.48
2023-04-18T12:23:07.823Z,18.27
2023-04-18T12:28:16.802Z,15.75
2023-04-18T12:33:19.660Z,19.63
2023-04-18T12:38:23.053Z,16.95
2023-04-18T12:43:25.781Z,15.30
2023-04-18T12:48:28.721Z,17.15
2023-04-18T12:53:30.951Z,17.55
2023-04-18T12:58:33.057Z,15.90
2023-04-18T13:03:36.726Z,13.50
2023-04-18T13:08:38.917Z,14.90
2023-04-18T13:13:41.078Z,14.82
2023-04-18T13:18:43.107Z,15.90
2023-04-18T13:23:45.384Z,16.58
2023-04-18T13:28:47.432Z,17.52
2023-04-18T13:33:49.496Z,16.60
2023-04-18T13:38:51.874Z,14.77
2023-04-18T13:43:53.932Z,15.70
2023-04-18T13:48:56.073Z,16.50
2023-04-18T13:54:00.201Z,13.38
2023-04-18T13:59:02.273Z,15.52
2023-04-18T14:04:04.520Z,13.95
2023-04-18T14:09:07.402Z,15.98
2023-04-18T14:14:09.566Z,14.20
2023-04-18T14:19:11.935Z,15.82
2023-04-18T14:24:14.421Z,14.15
2023-04-18T14:29:16.725Z,12.57
2023-04-18T14:34:18.989Z,12.82
2023-04-18T14:39:21.663Z,12.55
2023-04-18T14:44:23.722Z,12.30
2023-04-18T14:49:25.797Z,12.52
2023-04-18T14:54:28.963Z,14.10
2023-04-18T14:59:32.209Z,13.65
2023-04-18T15:04:34.444Z,15.30
2023-04-18T15:09:37.934Z,13.93
2023-04-18T15:14:40.210Z,12.35
2023-04-18T15:19:42.310Z,11.75
2023-04-18T15:24:44.446Z,11.85
2023-04-18T15:29:47.035Z,13.50
2023-04-18T15:34:49.232Z,11.40
2023-04-18T15:39:51.358Z,12.52
2023-04-18T15:44:53.621Z,13.27
2023-04-18T15:49:56.005Z,11.80
2023-04-18T15:54:58.093Z,11.55
2023-04-18T16:00:00.333Z,12.05
2023-04-18T16:05:02.467Z,12.57
2023-04-18T16:10:06.419Z,11.57
2023-04-18T16:15:10.093Z,10.48
2023-04-18T16:20:12.236Z,11.90
2023-04-18T16:25:14.742Z,10.50
2023-04-18T16:30:16.813Z,10.07
2023-04-18T16:35:18.893Z,10.40
2023-04-18T16:40:21.011Z,11.00
2023-04-18T16:45:23.220Z,10.75
2023-04-18T16:50:25.848Z,11.82
2023-04-18T16:55:27.967Z,13.02
2023-04-18T17:00:30.055Z,12.43
2023-04-18T17:05:33.318Z,11.57
2023-04-18T17:10:35.504Z,14.32
2023-04-18T17:15:38.341Z,13.25
2023-04-18T17:20:40.503Z,11.15
2023-04-18T17:25:42.681Z,12.85
2023-04-18T17:30:44.866Z,14.88
2023-04-18T17:35:48.186Z,16.48
2023-04-18T17:40:59.338Z,14.70
2023-04-18T17:46:03.694Z,12.32
2023-04-18T17:51:05.979Z,12.73
2023-04-18T17:56:09.611Z,11.57
2023-04-18T18:01:15.946Z,10.57
2023-04-18T18:06:18.057Z,12.23
2023-04-18T18:11:20.978Z,12.00
2023-04-18T18:16:24.136Z,9.43
2023-04-18T18:21:26.326Z,9.98
2023-04-18T18:26:28.389Z,10.02
2023-04-18T18:31:30.468Z,9.88
2023-04-18T18:36:32.650Z,10.13
2023-04-18T18:41:34.771Z,9.15
2023-04-18T18:46:37.045Z,9.52
2023-04-18T18:51:40.983Z,9.68
2023-04-18T18:56:44.212Z,8.88
2023-04-18T19:01:46.534Z,8.63
2023-04-18T19:06:48.856Z,9.10
2023-04-18T19:11:51.289Z,8.70
2023-04-18T19:16:55.817Z,8.95
2023-04-18T19:21:57.975Z,9.63
2023-04-18T19:27:00.006Z,9.80
2023-04-18T19:32:02.636Z,9.52
2023-04-18T19:37:05.070Z,9.52
2023-04-18T19:42:08.439Z,8.98
2023-04-18T19:47:10.719Z,7.28
2023-04-18T19:52:12.837Z,9.02
2023-04-18T19:57:14.924Z,7.88
2023-04-18T20:02:16.980Z,8.57
2023-04-18T20:07:19.052Z,9.23
2023-04-18T20:12:21.108Z,8.57
2023-04-18T20:17:23.183Z,7.57
2023-04-18T20:22:26.748Z,7.88
2023-04-18T20:27:28.894Z,8.68
2023-04-18T20:32:31.120Z,7.93
2023-04-18T20:37:36.756Z,8.43
2023-04-18T20:47:42.405Z,6.63
2023-04-18T20:52:44.798Z,7.40
2023-04-18T20:57:47.012Z,6.68
2023-04-18T21:02:49.332Z,6.70
2023-04-18T21:07:51.573Z,8.40
2023-04-18T21:12:53.631Z,8.32
2023-04-18T21:17:56.051Z,6.13
2023-04-18T21:22:58.375Z,9.23
2023-04-18T21:28:00.556Z,7.07
2023-04-18T21:33:03.110Z,6.78
2023-04-18T21:38:05.336Z,7.70
2023-04-18T21:43:07.488Z,9.23
2023-04-18T21:48:10.530Z,8.00
2023-04-18T21:53:12.577Z,7.15
2023-04-18T21:58:15.004Z,9.65
2023-04-18T22:03:17.271Z,8.40
2023-04-18T22:08:20.537Z,8.50
2023-04-18T22:13:23.744Z,8.55
2023-04-18T22:18:25.806Z,8.65
2023-04-18T22:23:28.137Z,9.00
2023-04-18T22:28:30.365Z,7.30
2023-04-18T22:33:32.441Z,7.43
2023-04-18T22:38:34.510Z,7.47
2023-04-18T22:43:36.543Z,8.10
2023-04-18T22:48:38.588Z,6.75
2023-04-18T22:53:40.801Z,8.90
2023-04-18T22:58:42.882Z,7.60
2023-04-18T23:03:45.040Z,10.20
2023-04-18T23:08:47.307Z,9.70
2023-04-18T23:13:49.393Z,7.90
2023-04-18T23:18:51.461Z,7.32
2023-04-18T23:23:53.692Z,8.05
2023-04-18T23:28:55.862Z,10.85
2023-04-18T23:33:57.929Z,9.63
2023-04-18T23:39:00.005Z,10.82
2023-04-18T23:44:02.234Z,11.88
2023-04-18T23:49:04.332Z,13.00
2023-04-18T23:54:06.500Z,12.30
2023-04-18T23:59:08.568Z,13.30
